createdAt,value
2022-11-29T00:01:36.243Z,10.30
2022-11-29T00:04:06.606Z,9.10
2022-11-29T00:06:35.389Z,9.23
2022-11-29T00:09:07.323Z,9.60
2022-11-29T00:11:54.895Z,9.20
2022-11-29T00:14:23.382Z,9.32
2022-11-29T00:16:54.120Z,8.85
2022-11-29T00:19:22.556Z,9.20
2022-11-29T00:21:51.048Z,9.27
2022-11-29T00:24:19.537Z,8.98
2022-11-29T00:26:48.145Z,9.05
2022-11-29T00:29:16.570Z,9.27
2022-11-29T00:31:45.291Z,9.65
2022-11-29T00:34:15.027Z,9.75
2022-11-29T00:36:43.474Z,9.18
2022-11-29T00:39:16.400Z,9.50
2022-11-29T00:41:44.968Z,9.27
2022-11-29T00:44:19.655Z,9.80
2022-11-29T00:46:49.054Z,9.07
2022-11-29T00:49:18.861Z,9.02
2022-11-29T00:51:47.242Z,9.68
2022-11-29T00:54:15.584Z,8.82
2022-11-29T00:56:44.183Z,9.25
2022-11-29T00:59:12.546Z,8.50
2022-11-29T01:01:40.965Z,9.18
2022-11-29T01:04:09.556Z,9.32
2022-11-29T01:06:39.265Z,9.00
2022-11-29T01:09:07.718Z,8.48
2022-11-29T01:11:36.337Z,9.23
2022-11-29T01:14:04.862Z,9.55
2022-11-29T01:16:33.246Z,8.70
2022-11-29T01:19:01.914Z,8.77
2022-11-29T01:21:30.413Z,9.10
2022-11-29T01:24:01.104Z,8.98
2022-11-29T01:29:35.653Z,9.02
2022-11-29T01:32:04.274Z,9.20
2022-11-29T01:34:32.903Z,9.77
2022-11-29T01:37:19.898Z,9.38
2022-11-29T01:39:49.808Z,9.55
2022-11-29T01:42:18.154Z,9.40
2022-11-29T01:45:08.316Z,9.68
2022-11-29T01:47:37.771Z,9.00
2022-11-29T01:50:07.793Z,9.32
2022-11-29T01:52:36.093Z,9.40
2022-11-29T01:58:14.429Z,9.27
2022-11-29T01:58:19.640Z,9.45
2022-11-29T02:00:42.943Z,8.80
2022-11-29T02:03:12.899Z,9.52
2022-11-29T02:05:43.260Z,9.48
2022-11-29T02:08:12.676Z,9.00
2022-11-29T02:10:59.549Z,9.20
2022-11-29T02:13:33.399Z,9.05
2022-11-29T02:16:05.707Z,8.77
2022-11-29T02:18:47.331Z,9.07
2022-11-29T02:21:37.821Z,9.75
2022-11-29T02:24:52.544Z,9.50
2022-11-29T02:28:04.682Z,8.98
2022-11-29T02:31:05.545Z,9.07
2022-11-29T02:34:01.258Z,9.20
2022-11-29T02:36:52.475Z,9.20
2022-11-29T02:39:40.691Z,9.90
2022-11-29T02:42:56.139Z,9.00
2022-11-29T02:45:45.854Z,9.13
2022-11-29T02:48:30.374Z,9.73
2022-11-29T02:51:03.877Z,10.23
2022-11-29T02:53:36.830Z,9.68
2022-11-29T02:56:12.053Z,9.50
2022-11-29T02:58:50.405Z,10.25
2022-11-29T03:01:22.276Z,9.55
2022-11-29T03:03:54.798Z,10.15
2022-11-29T03:06:32.741Z,9.20
2022-11-29T03:09:07.192Z,9.90
2022-11-29T03:11:40.438Z,9.77
2022-11-29T03:14:16.216Z,9.70
2022-11-29T03:16:48.602Z,9.45
2022-11-29T03:19:35.028Z,9.18
2022-11-29T03:22:12.344Z,8.98
2022-11-29T03:24:46.553Z,8.95
2022-11-29T03:27:18.564Z,9.40
2022-11-29T03:29:49.371Z,8.80
2022-11-29T03:32:21.093Z,9.85
2022-11-29T03:34:57.780Z,9.27
2022-11-29T03:37:31.018Z,9.90
2022-11-29T03:40:06.263Z,8.65
2022-11-29T03:42:38.692Z,9.30
2022-11-29T03:45:12.209Z,9.45
2022-11-29T03:47:43.932Z,9.63
2022-11-29T03:50:15.241Z,9.57
2022-11-29T03:52:49.866Z,9.98
2022-11-29T03:55:34.694Z,9.40
2022-11-29T03:58:13.833Z,9.30
2022-11-29T04:01:06.645Z,9.43
2022-11-29T04:04:00.160Z,9.57
2022-11-29T04:06:40.530Z,8.98
2022-11-29T04:09:43.723Z,9.75
2022-11-29T04:12:45.326Z,9.52
2022-11-29T04:15:59.620Z,9.85
2022-11-29T04:19:05.108Z,9.80
2022-11-29T04:22:05.987Z,9.05
2022-11-29T04:25:15.255Z,9.15
2022-11-29T04:28:07.914Z,9.38
2022-11-29T04:30:40.183Z,8.80
2022-11-29T04:33:51.746Z,9.32
2022-11-29T04:36:41.293Z,9.52
2022-11-29T04:39:38.685Z,9.15
2022-11-29T04:42:45.217Z,9.38
2022-11-29T04:45:47.420Z,10.07
2022-11-29T04:48:27.870Z,8.55
2022-11-29T04:51:02.962Z,9.63
2022-11-29T04:53:48.968Z,8.98
2022-11-29T04:56:24.847Z,9.57
2022-11-29T04:59:02.503Z,9.25
2022-11-29T05:01:39.938Z,9.82
2022-11-29T05:04:14.788Z,9.27
2022-11-29T05:06:49.817Z,9.63
2022-11-29T05:09:24.536Z,9.57
2022-11-29T05:12:01.161Z,10.40
2022-11-29T05:14:41.945Z,9.30
2022-11-29T05:17:26.642Z,10.27
2022-11-29T05:20:04.243Z,9.13
2022-11-29T05:22:37.217Z,10.15
2022-11-29T05:25:38.985Z,9.88
2022-11-29T05:28:11.816Z,10.10
2022-11-29T05:31:01.890Z,9.48
2022-11-29T05:33:44.186Z,10.05
2022-11-29T05:36:16.134Z,10.35
2022-11-29T05:38:58.859Z,9.98
2022-11-29T05:41:49.332Z,9.85
2022-11-29T05:44:20.920Z,9.70
2022-11-29T05:46:56.433Z,10.27
2022-11-29T05:49:33.719Z,10.10
2022-11-29T05:52:30.563Z,10.27
2022-11-29T05:55:11.714Z,10.13
2022-11-29T05:57:44.814Z,10.60
2022-11-29T06:00:16.956Z,9.50
2022-11-29T06:02:55.479Z,10.52
2022-11-29T06:05:29.970Z,9.73
2022-11-29T06:08:04.060Z,9.93
2022-11-29T06:10:33.875Z,9.75
2022-11-29T06:13:12.104Z,9.68
2022-11-29T06:16:35.282Z,10.55
2022-11-29T06:19:56.171Z,9.70
2022-11-29T06:22:47.552Z,10.48
2022-11-29T06:25:34.027Z,10.27
2022-11-29T06:28:22.714Z,9.50
2022-11-29T06:31:00.733Z,9.70
2022-11-29T06:33:35.569Z,9.23
2022-11-29T06:36:16.175Z,9.93
2022-11-29T06:38:45.949Z,9.80
2022-11-29T06:41:19.283Z,9.80
2022-11-29T06:43:48.573Z,9.90
2022-11-29T06:46:36.980Z,10.48
2022-11-29T06:49:11.234Z,10.30
2022-11-29T06:51:49.240Z,10.35
2022-11-29T06:54:29.703Z,10.52
2022-11-29T06:57:03.389Z,10.52
2022-11-29T06:59:42.036Z,11.23
2022-11-29T07:02:25.876Z,11.05
2022-11-29T07:05:04.008Z,10.73
2022-11-29T07:07:34.204Z,10.35
2022-11-29T07:10:03.422Z,11.10
2022-11-29T07:12:32.571Z,11.25
2022-11-29T07:15:02.091Z,11.32
2022-11-29T07:17:34.787Z,11.20
2022-11-29T07:20:10.072Z,10.80
2022-11-29T07:22:52.202Z,10.65
2022-11-29T07:25:29.431Z,12.98
2022-11-29T07:28:04.983Z,12.02
2022-11-29T07:30:38.647Z,15.40
2022-11-29T07:33:12.415Z,15.93
2022-11-29T07:35:45.382Z,16.02
2022-11-29T07:38:20.219Z,14.75
2022-11-29T07:40:53.504Z,14.38
2022-11-29T07:43:33.009Z,16.83
2022-11-29T07:46:01.547Z,16.63
2022-11-29T07:48:29.932Z,16.50
2022-11-29T07:50:58.433Z,15.52
2022-11-29T07:53:29.044Z,15.35
2022-11-29T07:55:57.395Z,15.15
2022-11-29T07:58:26.315Z,15.68
2022-11-29T08:00:54.869Z,14.95
2022-11-29T08:03:23.333Z,13.20
2022-11-29T08:05:51.795Z,12.38
2022-11-29T08:08:20.353Z,12.38
2022-11-29T08:10:50.359Z,13.00
2022-11-29T08:13:20.584Z,13.82
2022-11-29T08:15:49.341Z,13.07
2022-11-29T08:18:17.853Z,11.90
2022-11-29T08:20:46.454Z,13.75
2022-11-29T08:23:15.347Z,13.57
2022-11-29T08:25:43.731Z,13.70
2022-11-29T08:28:13.521Z,13.05
2022-11-29T08:30:41.944Z,13.48
2022-11-29T08:33:10.280Z,13.45
2022-11-29T08:35:40.080Z,13.85
2022-11-29T08:38:08.461Z,13.85
2022-11-29T08:40:37.064Z,16.13
2022-11-29T08:43:05.564Z,15.32
2022-11-29T08:45:35.390Z,16.45
2022-11-29T08:48:03.758Z,17.98
2022-11-29T08:50:32.368Z,19.05
2022-11-29T08:53:18.193Z,26.10
2022-11-29T08:55:47.025Z,19.17
2022-11-29T08:58:16.218Z,19.23
2022-11-29T09:00:47.264Z,19.70
2022-11-29T09:03:33.717Z,17.58
2022-11-29T09:06:11.958Z,19.00
2022-11-29T09:08:43.566Z,17.77
2022-11-29T09:11:13.623Z,16.70
2022-11-29T09:13:42.535Z,17.70
2022-11-29T09:16:15.350Z,17.60
2022-11-29T09:18:48.550Z,17.38
2022-11-29T09:21:19.741Z,17.95
2022-11-29T09:23:48.297Z,17.77
2022-11-29T09:26:18.503Z,17.13
2022-11-29T09:28:47.413Z,17.65
2022-11-29T09:31:17.680Z,16.48
2022-11-29T09:33:46.661Z,17.60
2022-11-29T09:36:15.285Z,16.77
2022-11-29T09:38:43.915Z,17.23
2022-11-29T09:41:31.372Z,17.20
2022-11-29T09:44:04.950Z,16.67
2022-11-29T09:46:40.710Z,16.10
2022-11-29T09:49:36.090Z,16.27
2022-11-29T09:52:07.115Z,16.77
2022-11-29T09:54:39.849Z,16.92
2022-11-29T09:57:10.779Z,17.30
2022-11-29T09:59:42.847Z,18.85
2022-11-29T10:02:21.389Z,17.92
2022-11-29T10:04:53.481Z,17.35
2022-11-29T10:07:23.735Z,18.20
2022-11-29T10:09:54.667Z,18.08
2022-11-29T10:12:28.006Z,16.40
2022-11-29T10:14:59.018Z,16.67
2022-11-29T10:17:34.452Z,16.48
2022-11-29T10:20:07.865Z,17.15
2022-11-29T10:22:42.146Z,16.85
2022-11-29T10:25:11.643Z,15.30
2022-11-29T10:27:41.404Z,16.30
2022-11-29T10:30:17.864Z,16.48
2022-11-29T10:32:49.698Z,16.17
2022-11-29T10:35:19.967Z,16.52
2022-11-29T10:38:07.639Z,16.00
2022-11-29T10:40:36.949Z,17.20
2022-11-29T10:43:05.483Z,17.45
2022-11-29T10:45:35.442Z,17.77
2022-11-29T10:48:07.536Z,17.92
2022-11-29T10:50:37.208Z,17.67
2022-11-29T10:53:08.100Z,18.15
2022-11-29T10:55:42.970Z,18.88
2022-11-29T10:58:27.984Z,18.88
2022-11-29T11:00:58.489Z,19.58
2022-11-29T11:03:39.393Z,19.08
2022-11-29T11:06:12.075Z,17.95
2022-11-29T11:08:43.014Z,19.63
2022-11-29T11:11:11.572Z,18.63
2022-11-29T11:13:41.129Z,18.15
2022-11-29T11:16:15.414Z,19.48
2022-11-29T11:18:45.601Z,19.25
2022-11-29T11:21:14.996Z,19.00
2022-11-29T11:23:52.297Z,18.23
2022-11-29T11:26:20.734Z,17.13
2022-11-29T11:28:52.924Z,18.38
2022-11-29T11:31:29.520Z,17.45
2022-11-29T11:34:00.578Z,17.27
2022-11-29T11:36:28.991Z,16.73
2022-11-29T11:38:58.982Z,17.67
2022-11-29T11:41:45.455Z,17.25
2022-11-29T11:44:53.642Z,16.27
2022-11-29T11:47:24.398Z,16.13
2022-11-29T11:49:56.600Z,16.30
2022-11-29T11:52:27.025Z,15.85
2022-11-29T11:54:58.445Z,16.15
2022-11-29T11:57:26.922Z,15.45
2022-11-29T12:00:01.992Z,16.98
2022-11-29T12:02:38.795Z,15.82
2022-11-29T12:05:14.654Z,16.70
2022-11-29T12:08:07.365Z,16.45
2022-11-29T12:10:35.101Z,16.27
2022-11-29T12:13:03.594Z,16.67
2022-11-29T12:15:33.737Z,21.15
2022-11-29T12:18:04.671Z,19.23
2022-11-29T12:20:38.166Z,17.02
2022-11-29T12:23:22.922Z,15.73
2022-11-29T12:25:53.755Z,17.60
2022-11-29T12:28:29.607Z,17.08
2022-11-29T12:31:04.652Z,17.77
2022-11-29T12:33:39.148Z,18.20
2022-11-29T12:36:28.366Z,16.98
2022-11-29T12:39:20.337Z,16.77
2022-11-29T12:41:54.383Z,16.92
2022-11-29T12:44:33.616Z,17.83
2022-11-29T12:47:34.615Z,18.17
2022-11-29T12:50:05.122Z,17.13
2022-11-29T12:52:40.363Z,17.35
2022-11-29T12:55:11.530Z,18.15
2022-11-29T12:57:43.836Z,17.80
2022-11-29T13:00:17.021Z,18.15
2022-11-29T13:02:57.412Z,16.73
2022-11-29T13:05:40.377Z,17.10
2022-11-29T13:08:23.548Z,16.92
2022-11-29T13:11:03.066Z,17.80
2022-11-29T13:13:39.068Z,17.30
2022-11-29T13:16:14.675Z,16.65
2022-11-29T13:18:51.814Z,16.02
2022-11-29T13:21:23.749Z,15.45
2022-11-29T13:24:11.938Z,14.93
2022-11-29T13:26:40.529Z,15.52
2022-11-29T13:29:12.680Z,14.63
2022-11-29T13:31:41.123Z,16.45
2022-11-29T13:34:12.056Z,16.70
2022-11-29T13:36:49.340Z,16.83
2022-11-29T13:39:31.737Z,16.15
2022-11-29T13:42:06.080Z,16.95
2022-11-29T13:44:38.254Z,17.33
2022-11-29T13:47:08.945Z,16.67
2022-11-29T13:49:57.073Z,16.85
2022-11-29T13:52:38.576Z,22.95
2022-11-29T13:55:28.835Z,17.73
2022-11-29T13:58:16.913Z,17.27
2022-11-29T14:00:51.352Z,16.15
2022-11-29T14:03:33.099Z,16.55
2022-11-29T14:06:10.308Z,15.43
2022-11-29T14:09:10.767Z,15.98
2022-11-29T14:11:32.979Z,15.25
2022-11-29T14:14:07.473Z,16.27
2022-11-29T14:16:39.084Z,16.27
2022-11-29T14:19:22.045Z,15.18
2022-11-29T14:22:31.613Z,15.43
2022-11-29T14:25:21.701Z,14.93
2022-11-29T14:28:02.482Z,15.23
2022-11-29T14:30:48.779Z,14.68
2022-11-29T14:33:43.925Z,14.80
2022-11-29T14:36:42.402Z,14.48
2022-11-29T14:39:31.478Z,15.02
2022-11-29T14:42:14.565Z,14.80
2022-11-29T14:44:51.243Z,14.82
2022-11-29T14:47:30.017Z,21.77
2022-11-29T14:49:59.490Z,22.02
2022-11-29T14:52:33.750Z,20.80
2022-11-29T14:55:11.298Z,18.30
2022-11-29T14:58:06.273Z,17.35
2022-11-29T15:00:52.726Z,17.00
2022-11-29T15:03:23.008Z,17.13
2022-11-29T15:05:57.989Z,15.55
2022-11-29T15:08:35.540Z,16.40
2022-11-29T15:11:06.040Z,15.93
2022-11-29T15:13:36.675Z,16.25
2022-11-29T15:16:23.435Z,15.52
2022-11-29T15:19:39.405Z,15.20
2022-11-29T15:22:11.855Z,15.38
2022-11-29T15:24:52.862Z,15.23
2022-11-29T15:27:21.560Z,14.38
2022-11-29T15:29:50.609Z,15.05
2022-11-29T15:32:26.514Z,14.95
2022-11-29T15:34:55.766Z,14.73
2022-11-29T15:37:26.486Z,15.30
2022-11-29T15:40:05.210Z,15.57
2022-11-29T15:42:41.706Z,15.00
2022-11-29T15:45:32.665Z,14.60
2022-11-29T15:48:18.735Z,14.55
2022-11-29T15:50:55.691Z,30.17
2022-11-29T15:53:27.153Z,28.60
2022-11-29T15:55:57.697Z,16.70
2022-11-29T15:58:27.818Z,20.25
2022-11-29T16:00:57.094Z,26.23
2022-11-29T16:03:30.614Z,27.33
2022-11-29T16:06:06.679Z,27.77
2022-11-29T16:08:39.109Z,28.10
2022-11-29T16:11:07.801Z,24.13
2022-11-29T16:13:38.796Z,24.23
2022-11-29T16:16:18.393Z,30.02
2022-11-29T16:18:49.163Z,31.58
2022-11-29T16:21:26.057Z,28.90
2022-11-29T16:23:54.735Z,26.98
2022-11-29T16:26:24.466Z,33.70
2022-11-29T16:28:53.820Z,34.10
2022-11-29T16:31:23.444Z,38.53
2022-11-29T16:33:53.759Z,50.10
2022-11-29T16:36:23.577Z,51.05
2022-11-29T16:38:53.518Z,45.65
2022-11-29T16:41:32.445Z,47.72
2022-11-29T16:44:03.309Z,46.15
2022-11-29T16:46:37.378Z,57.55
2022-11-29T16:49:34.662Z,50.83
2022-11-29T16:52:03.665Z,57.08
2022-11-29T16:54:34.325Z,53.15
2022-11-29T16:57:05.475Z,54.58
2022-11-29T16:59:35.379Z,66.72
2022-11-29T17:02:03.990Z,58.13
2022-11-29T17:04:33.859Z,56.25
2022-11-29T17:07:02.305Z,63.03
2022-11-29T17:09:33.173Z,54.45
2022-11-29T17:12:03.058Z,61.70
2022-11-29T17:14:31.707Z,71.45
2022-11-29T17:17:03.053Z,70.60
2022-11-29T17:19:33.050Z,69.32
2022-11-29T17:22:01.462Z,68.57
2022-11-29T17:24:29.905Z,63.53
2022-11-29T17:26:58.549Z,62.53
2022-11-29T17:29:27.092Z,61.75
2022-11-29T17:31:55.645Z,61.15
2022-11-29T17:34:24.347Z,61.55
2022-11-29T17:36:54.348Z,58.80
2022-11-29T17:39:23.028Z,57.65
2022-11-29T17:41:51.523Z,56.65
2022-11-29T17:44:19.927Z,58.03
2022-11-29T17:46:48.442Z,53.40
2022-11-29T17:49:18.749Z,55.50
2022-11-29T17:51:52.392Z,54.47
2022-11-29T17:54:25.791Z,52.67
2022-11-29T17:56:54.283Z,49.53
2022-11-29T17:59:22.817Z,53.22
2022-11-29T18:01:51.357Z,49.53
2022-11-29T18:04:19.986Z,50.33
2022-11-29T18:06:50.361Z,47.88
2022-11-29T18:09:19.698Z,46.22
2022-11-29T18:11:50.510Z,47.70
2022-11-29T18:14:21.167Z,47.83
2022-11-29T18:16:49.601Z,47.20
2022-11-29T18:19:20.211Z,47.72
2022-11-29T18:21:49.067Z,47.15
2022-11-29T18:24:17.664Z,45.95
2022-11-29T18:26:46.302Z,43.35
2022-11-29T18:29:16.380Z,43.20
2022-11-29T18:31:46.153Z,41.08
2022-11-29T18:34:15.056Z,42.75
2022-11-29T18:36:44.858Z,43.05
2022-11-29T18:39:15.119Z,42.03
2022-11-29T18:41:44.281Z,40.47
2022-11-29T18:44:15.917Z,40.20
2022-11-29T18:46:44.996Z,41.88
2022-11-29T18:49:14.337Z,39.20
2022-11-29T18:51:44.959Z,37.70
2022-11-29T18:54:14.209Z,38.65
2022-11-29T18:56:42.858Z,38.15
2022-11-29T18:59:13.705Z,38.08
2022-11-29T19:01:44.042Z,39.22
2022-11-29T19:04:13.474Z,38.67
2022-11-29T19:06:42.680Z,40.80
2022-11-29T19:09:14.209Z,38.63
2022-11-29T19:11:42.754Z,40.28
2022-11-29T19:14:12.877Z,36.42
2022-11-29T19:16:44.160Z,35.60
2022-11-29T19:19:13.036Z,36.88
2022-11-29T19:21:41.656Z,40.78
2022-11-29T19:24:15.141Z,37.78
2022-11-29T19:26:45.511Z,38.03
2022-11-29T19:29:14.417Z,36.97
2022-11-29T19:31:44.308Z,36.33
2022-11-29T19:34:12.857Z,36.63
2022-11-29T19:36:43.658Z,34.60
2022-11-29T19:39:13.155Z,33.10
2022-11-29T19:41:42.552Z,33.70
2022-11-29T19:44:11.194Z,33.38
2022-11-29T19:46:41.468Z,33.70
2022-11-29T19:49:11.461Z,32.28
2022-11-29T19:51:40.043Z,31.80
2022-11-29T19:54:09.735Z,31.27
2022-11-29T19:56:38.954Z,31.60
2022-11-29T19:59:08.312Z,30.83
2022-11-29T20:01:41.986Z,30.15
2022-11-29T20:04:13.961Z,30.17
2022-11-29T20:06:43.178Z,30.23
2022-11-29T20:09:12.281Z,29.38
2022-11-29T20:11:40.970Z,30.50
2022-11-29T20:14:09.974Z,29.20
2022-11-29T20:16:39.274Z,29.40
2022-11-29T20:19:13.587Z,29.45
2022-11-29T20:21:44.063Z,29.38
2022-11-29T20:24:14.561Z,27.75
2022-11-29T20:26:44.836Z,28.17
2022-11-29T20:29:13.420Z,27.25
2022-11-29T20:31:49.115Z,26.58
2022-11-29T20:34:21.168Z,28.05
2022-11-29T20:37:11.845Z,28.20
2022-11-29T20:39:45.123Z,27.58
2022-11-29T20:42:41.490Z,26.10
2022-11-29T20:45:12.174Z,26.27
2022-11-29T20:47:46.270Z,26.20
2022-11-29T20:50:23.138Z,26.25
2022-11-29T20:53:01.851Z,26.13
2022-11-29T20:55:30.623Z,26.92
2022-11-29T20:57:59.058Z,28.95
2022-11-29T21:00:27.631Z,31.08
2022-11-29T21:02:56.125Z,29.10
2022-11-29T21:05:25.855Z,30.85
2022-11-29T21:07:54.380Z,29.83
2022-11-29T21:10:23.396Z,28.42
2022-11-29T21:12:52.547Z,28.98
2022-11-29T21:15:22.205Z,27.02
2022-11-29T21:17:51.300Z,27.42
2022-11-29T21:20:22.528Z,26.15
2022-11-29T21:22:56.956Z,27.02
2022-11-29T21:25:36.213Z,25.73
2022-11-29T21:28:05.463Z,26.20
2022-11-29T21:30:34.571Z,26.65
2022-11-29T21:33:03.634Z,25.77
2022-11-29T21:35:32.296Z,23.98
2022-11-29T21:38:02.588Z,23.85
2022-11-29T21:40:31.018Z,23.85
2022-11-29T21:43:08.125Z,23.77
2022-11-29T21:45:36.774Z,24.05
2022-11-29T21:48:25.710Z,25.05
2022-11-29T21:50:54.146Z,23.77
2022-11-29T21:53:23.998Z,23.52
2022-11-29T21:55:58.218Z,23.52
2022-11-29T21:58:26.798Z,22.73
2022-11-29T22:00:55.314Z,23.50
2022-11-29T22:03:23.802Z,22.90
2022-11-29T22:05:52.384Z,21.83
2022-11-29T22:08:20.780Z,23.60
2022-11-29T22:10:50.662Z,22.58
2022-11-29T22:13:19.277Z,21.85
2022-11-29T22:15:47.733Z,23.65
2022-11-29T22:18:16.125Z,22.50
2022-11-29T22:20:47.266Z,22.85
2022-11-29T22:23:15.704Z,21.95
2022-11-29T22:25:44.168Z,21.27
2022-11-29T22:28:14.072Z,21.73
2022-11-29T22:30:42.563Z,21.63
2022-11-29T22:33:13.426Z,21.63
2022-11-29T22:35:44.708Z,21.95
2022-11-29T22:38:13.103Z,21.30
2022-11-29T22:41:02.397Z,20.88
2022-11-29T22:43:34.857Z,20.70
2022-11-29T22:46:07.643Z,20.75
2022-11-29T22:48:39.332Z,20.67
2022-11-29T22:51:09.035Z,20.38
2022-11-29T22:53:37.905Z,19.80
2022-11-29T22:56:08.582Z,20.27
2022-11-29T22:58:38.446Z,20.60
2022-11-29T23:01:08.462Z,19.08
2022-11-29T23:03:37.251Z,18.77
2022-11-29T23:06:07.305Z,18.55
2022-11-29T23:08:35.945Z,19.33
2022-11-29T23:11:05.312Z,17.88
2022-11-29T23:13:34.201Z,18.90
2022-11-29T23:16:04.273Z,18.42
2022-11-29T23:18:33.156Z,18.20
2022-11-29T23:21:03.055Z,18.77
2022-11-29T23:23:31.603Z,18.10
2022-11-29T23:26:00.322Z,17.80
2022-11-29T23:28:28.921Z,16.92
2022-11-29T23:30:57.308Z,18.20
2022-11-29T23:33:27.615Z,17.25
2022-11-29T23:36:00.987Z,17.58
2022-11-29T23:38:29.612Z,16.95
2022-11-29T23:40:58.043Z,17.33
2022-11-29T23:43:26.608Z,17.90
2022-11-29T23:45:55.059Z,17.60
2022-11-29T23:48:23.526Z,16.30
2022-11-29T23:50:53.328Z,16.10
2022-11-29T23:53:21.725Z,16.83
2022-11-29T23:55:58.167Z,16.33
2022-11-29T23:58:28.883Z,16.63
